sensor_id;sensor_type;location;lat;lon;timestamp;P1;durP1;ratioP1;P2;durP2;ratioP2
30249;SDS011;17064;47.974;13.826;2023-10-19T00:00:37;30.40;;;16.70;;
30249;SDS011;17064;47.974;13.826;2023-10-19T00:05:45;28.83;;;16.75;;
30249;SDS011;17064;47.974;13.826;2023-10-19T00:10:48;26.88;;;15.50;;
30249;SDS011;17064;47.974;13.826;2023-10-19T00:16:02;33.42;;;16.75;;
30249;SDS011;17064;47.974;13.826;2023-10-19T00:21:11;31.15;;;15.75;;
30249;SDS011;17064;47.974;13.826;2023-10-19T00:26:20;32.38;;;16.27;;
30249;SDS011;17064;47.974;13.826;2023-10-19T00:31:21;29.30;;;16.25;;
30249;SDS011;17064;47.974;13.826;2023-10-19T00:36:23;27.23;;;15.57;;
30249;SDS011;17064;47.974;13.826;2023-10-19T00:41:25;30.13;;;16.85;;
30249;SDS011;17064;47.974;13.826;2023-10-19T00:46:30;31.55;;;16.63;;
30249;SDS011;17064;47.974;13.826;2023-10-19T00:51:52;31.73;;;17.50;;
30249;SDS011;17064;47.974;13.826;2023-10-19T00:57:02;30.35;;;16.75;;
30249;SDS011;17064;47.974;13.826;2023-10-19T01:02:10;30.15;;;15.77;;
30249;SDS011;17064;47.974;13.826;2023-10-19T01:07:20;31.35;;;17.42;;
30249;SDS011;17064;47.974;13.826;2023-10-19T01:12:23;34.78;;;17.67;;
30249;SDS011;17064;47.974;13.826;2023-10-19T01:17:36;31.48;;;18.50;;
30249;SDS011;17064;47.974;13.826;2023-10-19T01:22:47;35.15;;;18.90;;
30249;SDS011;17064;47.974;13.826;2023-10-19T01:27:51;35.30;;;17.80;;
30249;SDS011;17064;47.974;13.826;2023-10-19T01:32:57;29.25;;;16.83;;
30249;SDS011;17064;47.974;13.826;2023-10-19T01:37:58;29.10;;;16.60;;
30249;SDS011;17064;47.974;13.826;2023-10-19T01:43:00;27.33;;;15.57;;
30249;SDS011;17064;47.974;13.826;2023-10-19T01:48:00;29.00;;;15.52;;
30249;SDS011;17064;47.974;13.826;2023-10-19T01:53:01;26.98;;;16.23;;
30249;SDS011;17064;47.974;13.826;2023-10-19T01:58:12;28.38;;;16.17;;
30249;SDS011;17064;47.974;13.826;2023-10-19T02:03:14;33.83;;;18.20;;
30249;SDS011;17064;47.974;13.826;2023-10-19T02:08:16;29.33;;;16.90;;
30249;SDS011;17064;47.974;13.826;2023-10-19T02:13:17;32.30;;;17.67;;
30249;SDS011;17064;47.974;13.826;2023-10-19T02:18:19;29.73;;;17.00;;
30249;SDS011;17064;47.974;13.826;2023-10-19T02:23:20;31.05;;;16.92;;
30249;SDS011;17064;47.974;13.826;2023-10-19T02:28:21;32.35;;;16.88;;
30249;SDS011;17064;47.974;13.826;2023-10-19T02:33:29;31.58;;;17.73;;
30249;SDS011;17064;47.974;13.826;2023-10-19T02:38:30;31.98;;;16.80;;
30249;SDS011;17064;47.974;13.826;2023-10-19T02:43:31;36.65;;;17.98;;
30249;SDS011;17064;47.974;13.826;2023-10-19T02:48:33;32.22;;;17.17;;
30249;SDS011;17064;47.974;13.826;2023-10-19T02:53:33;33.72;;;16.73;;
30249;SDS011;17064;47.974;13.826;2023-10-19T02:58:34;29.20;;;16.08;;
30249;SDS011;17064;47.974;13.826;2023-10-19T03:03:35;28.63;;;15.43;;
30249;SDS011;17064;47.974;13.826;2023-10-19T03:08:35;28.80;;;15.82;;
30249;SDS011;17064;47.974;13.826;2023-10-19T03:13:36;26.00;;;15.05;;
30249;SDS011;17064;47.974;13.826;2023-10-19T03:18:37;35.85;;;18.30;;
30249;SDS011;17064;47.974;13.826;2023-10-19T03:23:39;32.30;;;17.38;;
30249;SDS011;17064;47.974;13.826;2023-10-19T03:28:40;31.10;;;16.95;;
30249;SDS011;17064;47.974;13.826;2023-10-19T03:33:45;35.08;;;17.70;;
30249;SDS011;17064;47.974;13.826;2023-10-19T03:38:55;31.27;;;16.30;;
30249;SDS011;17064;47.974;13.826;2023-10-19T03:43:56;30.98;;;15.90;;
30249;SDS011;17064;47.974;13.826;2023-10-19T03:48:58;29.45;;;16.38;;
30249;SDS011;17064;47.974;13.826;2023-10-19T03:54:10;31.63;;;17.60;;
30249;SDS011;17064;47.974;13.826;2023-10-19T03:59:23;38.83;;;20.13;;
30249;SDS011;17064;47.974;13.826;2023-10-19T04:04:29;36.65;;;20.23;;
30249;SDS011;17064;47.974;13.826;2023-10-19T04:09:30;36.03;;;18.45;;
30249;SDS011;17064;47.974;13.826;2023-10-19T04:14:31;34.33;;;18.10;;
30249;SDS011;17064;47.974;13.826;2023-10-19T04:19:31;36.97;;;19.95;;
30249;SDS011;17064;47.974;13.826;2023-10-19T04:24:32;36.72;;;19.83;;
30249;SDS011;17064;47.974;13.826;2023-10-19T04:29:33;30.75;;;16.80;;
30249;SDS011;17064;47.974;13.826;2023-10-19T04:34:35;27.27;;;15.63;;
30249;SDS011;17064;47.974;13.826;2023-10-19T04:39:39;31.60;;;16.35;;
30249;SDS011;17064;47.974;13.826;2023-10-19T04:44:40;28.27;;;14.65;;
30249;SDS011;17064;47.974;13.826;2023-10-19T04:49:40;29.92;;;17.25;;
30249;SDS011;17064;47.974;13.826;2023-10-19T04:54:41;34.30;;;17.77;;
30249;SDS011;17064;47.974;13.826;2023-10-19T04:59:42;32.70;;;17.33;;
30249;SDS011;17064;47.974;13.826;2023-10-19T05:04:45;31.48;;;14.90;;
30249;SDS011;17064;47.974;13.826;2023-10-19T05:09:46;30.23;;;16.25;;
30249;SDS011;17064;47.974;13.826;2023-10-19T05:14:46;28.75;;;15.38;;
30249;SDS011;17064;47.974;13.826;2023-10-19T05:19:47;30.25;;;16.08;;
30249;SDS011;17064;47.974;13.826;2023-10-19T05:24:48;31.58;;;15.65;;
30249;SDS011;17064;47.974;13.826;2023-10-19T05:29:49;31.75;;;15.75;;
30249;SDS011;17064;47.974;13.826;2023-10-19T05:34:51;32.63;;;15.55;;
30249;SDS011;17064;47.974;13.826;2023-10-19T05:39:52;36.22;;;16.17;;
30249;SDS011;17064;47.974;13.826;2023-10-19T05:44:52;38.40;;;16.75;;
30249;SDS011;17064;47.974;13.826;2023-10-19T05:49:53;41.38;;;18.63;;
30249;SDS011;17064;47.974;13.826;2023-10-19T05:54:54;39.55;;;18.58;;
30249;SDS011;17064;47.974;13.826;2023-10-19T05:59:54;50.35;;;19.50;;
30249;SDS011;17064;47.974;13.826;2023-10-19T06:04:55;36.15;;;18.23;;
30249;SDS011;17064;47.974;13.826;2023-10-19T06:09:57;42.28;;;19.92;;
30249;SDS011;17064;47.974;13.826;2023-10-19T06:14:58;48.78;;;20.92;;
30249;SDS011;17064;47.974;13.826;2023-10-19T06:20:00;47.47;;;21.52;;
30249;SDS011;17064;47.974;13.826;2023-10-19T06:25:02;68.85;;;25.48;;
30249;SDS011;17064;47.974;13.826;2023-10-19T06:30:05;66.90;;;27.23;;
30249;SDS011;17064;47.974;13.826;2023-10-19T06:35:07;60.65;;;26.92;;
30249;SDS011;17064;47.974;13.826;2023-10-19T06:40:08;64.25;;;27.85;;
30249;SDS011;17064;47.974;13.826;2023-10-19T06:45:11;60.22;;;29.13;;
30249;SDS011;17064;47.974;13.826;2023-10-19T06:50:16;63.33;;;28.65;;
30249;SDS011;17064;47.974;13.826;2023-10-19T06:55:21;60.30;;;27.52;;
30249;SDS011;17064;47.974;13.826;2023-10-19T07:00:23;57.55;;;26.08;;
30249;SDS011;17064;47.974;13.826;2023-10-19T07:05:27;53.20;;;25.95;;
30249;SDS011;17064;47.974;13.826;2023-10-19T07:10:31;53.83;;;25.60;;
30249;SDS011;17064;47.974;13.826;2023-10-19T07:15:32;68.88;;;29.98;;
30249;SDS011;17064;47.974;13.826;2023-10-19T07:20:34;58.63;;;29.63;;
30249;SDS011;17064;47.974;13.826;2023-10-19T07:25:36;63.35;;;31.25;;
30249;SDS011;17064;47.974;13.826;2023-10-19T07:30:43;59.25;;;30.67;;
30249;SDS011;17064;47.974;13.826;2023-10-19T07:35:45;61.30;;;28.83;;
30249;SDS011;17064;47.974;13.826;2023-10-19T07:40:48;57.83;;;29.47;;
30249;SDS011;17064;47.974;13.826;2023-10-19T07:45:49;56.13;;;29.57;;
30249;SDS011;17064;47.974;13.826;2023-10-19T07:50:52;59.40;;;29.87;;
30249;SDS011;17064;47.974;13.826;2023-10-19T07:55:53;53.85;;;27.83;;
30249;SDS011;17064;47.974;13.826;2023-10-19T08:00:54;53.67;;;27.83;;
30249;SDS011;17064;47.974;13.826;2023-10-19T08:05:56;49.28;;;27.25;;
30249;SDS011;17064;47.974;13.826;2023-10-19T08:10:57;51.15;;;26.80;;
30249;SDS011;17064;47.974;13.826;2023-10-19T08:15:58;49.63;;;27.05;;
30249;SDS011;17064;47.974;13.826;2023-10-19T08:20:59;46.13;;;25.73;;
30249;SDS011;17064;47.974;13.826;2023-10-19T08:26:00;44.63;;;24.77;;
30249;SDS011;17064;47.974;13.826;2023-10-19T08:31:03;43.65;;;24.00;;
30249;SDS011;17064;47.974;13.826;2023-10-19T08:36:05;48.05;;;26.45;;
30249;SDS011;17064;47.974;13.826;2023-10-19T08:41:06;45.40;;;23.58;;
30249;SDS011;17064;47.974;13.826;2023-10-19T08:46:06;43.72;;;23.60;;
30249;SDS011;17064;47.974;13.826;2023-10-19T08:51:10;45.10;;;24.42;;
30249;SDS011;17064;47.974;13.826;2023-10-19T08:56:11;45.28;;;24.67;;
30249;SDS011;17064;47.974;13.826;2023-10-19T09:01:12;46.15;;;24.80;;
30249;SDS011;17064;47.974;13.826;2023-10-19T09:06:13;43.90;;;24.63;;
30249;SDS011;17064;47.974;13.826;2023-10-19T09:11:15;45.03;;;24.80;;
30249;SDS011;17064;47.974;13.826;2023-10-19T09:16:19;45.17;;;24.08;;
30249;SDS011;17064;47.974;13.826;2023-10-19T09:21:21;39.67;;;23.20;;
30249;SDS011;17064;47.974;13.826;2023-10-19T09:26:24;44.67;;;22.23;;
30249;SDS011;17064;47.974;13.826;2023-10-19T09:31:25;41.03;;;23.67;;
30249;SDS011;17064;47.974;13.826;2023-10-19T09:36:26;38.03;;;22.65;;
30249;SDS011;17064;47.974;13.826;2023-10-19T09:41:29;41.03;;;22.88;;
30249;SDS011;17064;47.974;13.826;2023-10-19T09:46:33;43.38;;;22.08;;
30249;SDS011;17064;47.974;13.826;2023-10-19T09:51:39;39.17;;;22.67;;
30249;SDS011;17064;47.974;13.826;2023-10-19T09:56:43;42.72;;;24.95;;
30249;SDS011;17064;47.974;13.826;2023-10-19T10:02:06;44.80;;;23.60;;
30249;SDS011;17064;47.974;13.826;2023-10-19T10:07:13;41.42;;;22.00;;
30249;SDS011;17064;47.974;13.826;2023-10-19T10:12:21;36.67;;;21.80;;
30249;SDS011;17064;47.974;13.826;2023-10-19T10:17:24;34.13;;;19.95;;
30249;SDS011;17064;47.974;13.826;2023-10-19T10:22:26;32.60;;;20.02;;
30249;SDS011;17064;47.974;13.826;2023-10-19T10:27:27;35.67;;;20.58;;
30249;SDS011;17064;47.974;13.826;2023-10-19T10:32:46;36.92;;;21.50;;
30249;SDS011;17064;47.974;13.826;2023-10-19T10:37:53;36.35;;;21.67;;
30249;SDS011;17064;47.974;13.826;2023-10-19T10:43:06;38.97;;;21.35;;
30249;SDS011;17064;47.974;13.826;2023-10-19T10:53:22;34.53;;;21.67;;
30249;SDS011;17064;47.974;13.826;2023-10-19T10:58:24;36.65;;;21.15;;
30249;SDS011;17064;47.974;13.826;2023-10-19T11:03:25;34.42;;;19.65;;
30249;SDS011;17064;47.974;13.826;2023-10-19T11:08:30;32.80;;;19.02;;
30249;SDS011;17064;47.974;13.826;2023-10-19T11:13:33;32.22;;;18.52;;
30249;SDS011;17064;47.974;13.826;2023-10-19T11:18:35;29.23;;;18.75;;
30249;SDS011;17064;47.974;13.826;2023-10-19T11:23:38;35.67;;;19.20;;
30249;SDS011;17064;47.974;13.826;2023-10-19T11:28:46;30.15;;;17.90;;
30249;SDS011;17064;47.974;13.826;2023-10-19T11:33:56;32.85;;;19.63;;
30249;SDS011;17064;47.974;13.826;2023-10-19T11:38:57;29.75;;;18.45;;
30249;SDS011;17064;47.974;13.826;2023-10-19T11:43:58;36.92;;;20.70;;
30249;SDS011;17064;47.974;13.826;2023-10-19T11:48:59;34.90;;;19.83;;
30249;SDS011;17064;47.974;13.826;2023-10-19T11:54:00;29.58;;;18.17;;
30249;SDS011;17064;47.974;13.826;2023-10-19T11:59:01;34.95;;;19.50;;
30249;SDS011;17064;47.974;13.826;2023-10-19T12:04:02;26.67;;;17.20;;
30249;SDS011;17064;47.974;13.826;2023-10-19T12:09:02;29.05;;;17.85;;
30249;SDS011;17064;47.974;13.826;2023-10-19T12:14:15;28.50;;;19.13;;
30249;SDS011;17064;47.974;13.826;2023-10-19T12:19:15;30.63;;;19.25;;
30249;SDS011;17064;47.974;13.826;2023-10-19T12:24:19;28.95;;;18.67;;
30249;SDS011;17064;47.974;13.826;2023-10-19T12:29:20;28.52;;;18.23;;
30249;SDS011;17064;47.974;13.826;2023-10-19T12:34:21;25.42;;;16.95;;
30249;SDS011;17064;47.974;13.826;2023-10-19T12:39:22;28.75;;;16.73;;
30249;SDS011;17064;47.974;13.826;2023-10-19T12:44:35;29.40;;;17.60;;
30249;SDS011;17064;47.974;13.826;2023-10-19T12:49:40;24.58;;;17.10;;
30249;SDS011;17064;47.974;13.826;2023-10-19T12:54:41;27.23;;;16.08;;
30249;SDS011;17064;47.974;13.826;2023-10-19T12:59:45;25.40;;;15.82;;
30249;SDS011;17064;47.974;13.826;2023-10-19T13:04:46;24.38;;;15.45;;
30249;SDS011;17064;47.974;13.826;2023-10-19T13:09:47;21.90;;;15.27;;
30249;SDS011;17064;47.974;13.826;2023-10-19T13:14:49;24.60;;;16.42;;
30249;SDS011;17064;47.974;13.826;2023-10-19T13:19:51;30.02;;;16.60;;
30249;SDS011;17064;47.974;13.826;2023-10-19T13:24:55;24.35;;;15.32;;
30249;SDS011;17064;47.974;13.826;2023-10-19T13:29:56;20.80;;;14.40;;
30249;SDS011;17064;47.974;13.826;2023-10-19T13:34:57;22.98;;;15.00;;
30249;SDS011;17064;47.974;13.826;2023-10-19T13:39:58;23.30;;;14.70;;
30249;SDS011;17064;47.974;13.826;2023-10-19T13:44:59;27.35;;;14.38;;
30249;SDS011;17064;47.974;13.826;2023-10-19T13:49:59;26.45;;;14.27;;
30249;SDS011;17064;47.974;13.826;2023-10-19T13:55:01;21.90;;;14.32;;
30249;SDS011;17064;47.974;13.826;2023-10-19T14:00:05;20.73;;;13.15;;
30249;SDS011;17064;47.974;13.826;2023-10-19T14:05:08;23.88;;;14.48;;
30249;SDS011;17064;47.974;13.826;2023-10-19T14:10:09;23.05;;;14.38;;
30249;SDS011;17064;47.974;13.826;2023-10-19T14:15:13;26.05;;;13.73;;
30249;SDS011;17064;47.974;13.826;2023-10-19T14:20:20;24.85;;;14.90;;
30249;SDS011;17064;47.974;13.826;2023-10-19T14:25:21;25.30;;;15.38;;
30249;SDS011;17064;47.974;13.826;2023-10-19T14:30:23;30.87;;;16.03;;
30249;SDS011;17064;47.974;13.826;2023-10-19T14:35:25;24.35;;;14.40;;
30249;SDS011;17064;47.974;13.826;2023-10-19T14:40:26;30.77;;;16.77;;
30249;SDS011;17064;47.974;13.826;2023-10-19T14:45:28;29.02;;;16.80;;
30249;SDS011;17064;47.974;13.826;2023-10-19T14:50:28;36.70;;;15.95;;
30249;SDS011;17064;47.974;13.826;2023-10-19T14:55:30;31.17;;;17.15;;
30249;SDS011;17064;47.974;13.826;2023-10-19T15:00:30;26.23;;;16.45;;
30249;SDS011;17064;47.974;13.826;2023-10-19T15:05:31;31.00;;;17.30;;
30249;SDS011;17064;47.974;13.826;2023-10-19T15:10:39;31.08;;;17.13;;
30249;SDS011;17064;47.974;13.826;2023-10-19T15:15:41;33.55;;;18.02;;
30249;SDS011;17064;47.974;13.826;2023-10-19T15:20:42;29.92;;;16.95;;
30249;SDS011;17064;47.974;13.826;2023-10-19T15:25:42;28.20;;;15.23;;
30249;SDS011;17064;47.974;13.826;2023-10-19T15:30:43;28.95;;;15.65;;
30249;SDS011;17064;47.974;13.826;2023-10-19T15:35:47;30.02;;;15.85;;
30249;SDS011;17064;47.974;13.826;2023-10-19T15:40:48;28.42;;;15.95;;
30249;SDS011;17064;47.974;13.826;2023-10-19T15:45:49;30.83;;;16.33;;
30249;SDS011;17064;47.974;13.826;2023-10-19T15:50:50;32.70;;;18.50;;
30249;SDS011;17064;47.974;13.826;2023-10-19T15:55:51;28.40;;;16.98;;
30249;SDS011;17064;47.974;13.826;2023-10-19T16:00:51;28.92;;;17.27;;
30249;SDS011;17064;47.974;13.826;2023-10-19T16:05:53;28.13;;;16.45;;
30249;SDS011;17064;47.974;13.826;2023-10-19T16:10:54;30.13;;;17.23;;
30249;SDS011;17064;47.974;13.826;2023-10-19T16:15:55;30.40;;;16.73;;
30249;SDS011;17064;47.974;13.826;2023-10-19T16:20:56;32.42;;;17.85;;
30249;SDS011;17064;47.974;13.826;2023-10-19T16:25:58;34.25;;;18.17;;
30249;SDS011;17064;47.974;13.826;2023-10-19T16:31:03;33.38;;;17.92;;
30249;SDS011;17064;47.974;13.826;2023-10-19T16:36:06;29.92;;;16.90;;
30249;SDS011;17064;47.974;13.826;2023-10-19T16:41:07;34.50;;;19.48;;
30249;SDS011;17064;47.974;13.826;2023-10-19T16:46:08;32.83;;;19.13;;
30249;SDS011;17064;47.974;13.826;2023-10-19T16:51:10;33.25;;;18.10;;
30249;SDS011;17064;47.974;13.826;2023-10-19T16:56:14;39.08;;;21.20;;
30249;SDS011;17064;47.974;13.826;2023-10-19T17:01:22;49.28;;;25.13;;
30249;SDS011;17064;47.974;13.826;2023-10-19T17:06:24;44.47;;;22.33;;
30249;SDS011;17064;47.974;13.826;2023-10-19T17:11:25;42.13;;;23.00;;
30249;SDS011;17064;47.974;13.826;2023-10-19T17:16:27;40.35;;;22.10;;
30249;SDS011;17064;47.974;13.826;2023-10-19T17:21:30;38.47;;;21.27;;
30249;SDS011;17064;47.974;13.826;2023-10-19T17:26:32;42.25;;;22.05;;
30249;SDS011;17064;47.974;13.826;2023-10-19T17:31:35;38.17;;;20.70;;
30249;SDS011;17064;47.974;13.826;2023-10-19T17:36:37;37.95;;;20.67;;
30249;SDS011;17064;47.974;13.826;2023-10-19T17:41:40;37.40;;;21.02;;
30249;SDS011;17064;47.974;13.826;2023-10-19T17:46:46;44.53;;;25.55;;
30249;SDS011;17064;47.974;13.826;2023-10-19T17:51:48;45.92;;;22.55;;
30249;SDS011;17064;47.974;13.826;2023-10-19T17:56:50;42.43;;;23.37;;
30249;SDS011;17064;47.974;13.826;2023-10-19T18:01:52;42.08;;;22.98;;
30249;SDS011;17064;47.974;13.826;2023-10-19T18:06:53;44.92;;;24.08;;
30249;SDS011;17064;47.974;13.826;2023-10-19T18:11:58;42.95;;;22.25;;
30249;SDS011;17064;47.974;13.826;2023-10-19T18:17:00;46.55;;;23.75;;
30249;SDS011;17064;47.974;13.826;2023-10-19T18:22:02;46.42;;;23.95;;
30249;SDS011;17064;47.974;13.826;2023-10-19T18:27:06;54.50;;;25.38;;
30249;SDS011;17064;47.974;13.826;2023-10-19T18:32:07;50.03;;;25.17;;
30249;SDS011;17064;47.974;13.826;2023-10-19T18:37:09;44.60;;;24.65;;
30249;SDS011;17064;47.974;13.826;2023-10-19T18:42:10;49.50;;;23.50;;
30249;SDS011;17064;47.974;13.826;2023-10-19T18:47:11;44.53;;;23.60;;
30249;SDS011;17064;47.974;13.826;2023-10-19T18:52:14;48.22;;;25.15;;
30249;SDS011;17064;47.974;13.826;2023-10-19T18:57:15;56.83;;;28.40;;
30249;SDS011;17064;47.974;13.826;2023-10-19T19:02:17;49.05;;;25.80;;
30249;SDS011;17064;47.974;13.826;2023-10-19T19:07:18;54.85;;;26.02;;
30249;SDS011;17064;47.974;13.826;2023-10-19T19:12:19;54.80;;;28.15;;
30249;SDS011;17064;47.974;13.826;2023-10-19T19:17:20;53.40;;;28.08;;
30249;SDS011;17064;47.974;13.826;2023-10-19T19:22:22;52.00;;;27.55;;
30249;SDS011;17064;47.974;13.826;2023-10-19T19:27:24;56.28;;;27.65;;
30249;SDS011;17064;47.974;13.826;2023-10-19T19:32:24;49.15;;;26.33;;
30249;SDS011;17064;47.974;13.826;2023-10-19T19:37:25;53.25;;;27.20;;
30249;SDS011;17064;47.974;13.826;2023-10-19T19:42:26;48.03;;;26.08;;
30249;SDS011;17064;47.974;13.826;2023-10-19T19:47:27;49.67;;;26.95;;
30249;SDS011;17064;47.974;13.826;2023-10-19T19:52:29;53.03;;;26.27;;
30249;SDS011;17064;47.974;13.826;2023-10-19T19:57:31;55.00;;;28.00;;
30249;SDS011;17064;47.974;13.826;2023-10-19T20:02:33;53.50;;;26.63;;
30249;SDS011;17064;47.974;13.826;2023-10-19T20:07:34;46.55;;;26.23;;
30249;SDS011;17064;47.974;13.826;2023-10-19T20:12:38;46.38;;;24.65;;
30249;SDS011;17064;47.974;13.826;2023-10-19T20:17:43;44.78;;;23.95;;
30249;SDS011;17064;47.974;13.826;2023-10-19T20:22:43;40.85;;;22.48;;
30249;SDS011;17064;47.974;13.826;2023-10-19T20:27:44;42.58;;;22.98;;
30249;SDS011;17064;47.974;13.826;2023-10-19T20:32:48;41.05;;;23.13;;
30249;SDS011;17064;47.974;13.826;2023-10-19T20:37:49;51.38;;;25.20;;
30249;SDS011;17064;47.974;13.826;2023-10-19T20:42:51;47.83;;;24.58;;
30249;SDS011;17064;47.974;13.826;2023-10-19T20:47:59;45.33;;;24.30;;
30249;SDS011;17064;47.974;13.826;2023-10-19T20:53:01;50.27;;;24.90;;
30249;SDS011;17064;47.974;13.826;2023-10-19T20:58:03;47.75;;;25.33;;
30249;SDS011;17064;47.974;13.826;2023-10-19T21:03:04;46.10;;;25.00;;
30249;SDS011;17064;47.974;13.826;2023-10-19T21:08:05;42.08;;;23.05;;
30249;SDS011;17064;47.974;13.826;2023-10-19T21:13:06;41.63;;;22.33;;
30249;SDS011;17064;47.974;13.826;2023-10-19T21:18:06;47.33;;;23.23;;
30249;SDS011;17064;47.974;13.826;2023-10-19T21:23:09;45.75;;;24.17;;
30249;SDS011;17064;47.974;13.826;2023-10-19T21:28:09;45.70;;;23.48;;
30249;SDS011;17064;47.974;13.826;2023-10-19T21:33:11;44.35;;;23.77;;
30249;SDS011;17064;47.974;13.826;2023-10-19T21:38:13;40.13;;;22.48;;
30249;SDS011;17064;47.974;13.826;2023-10-19T21:43:14;44.35;;;23.95;;
30249;SDS011;17064;47.974;13.826;2023-10-19T21:48:15;46.15;;;24.90;;
30249;SDS011;17064;47.974;13.826;2023-10-19T21:53:16;48.13;;;24.42;;
30249;SDS011;17064;47.974;13.826;2023-10-19T21:58:16;50.45;;;25.67;;
30249;SDS011;17064;47.974;13.826;2023-10-19T22:03:17;50.17;;;26.20;;
30249;SDS011;17064;47.974;13.826;2023-10-19T22:08:18;43.85;;;24.63;;
30249;SDS011;17064;47.974;13.826;2023-10-19T22:13:19;46.28;;;23.98;;
30249;SDS011;17064;47.974;13.826;2023-10-19T22:18:20;43.45;;;22.67;;
30249;SDS011;17064;47.974;13.826;2023-10-19T22:23:22;40.10;;;22.38;;
30249;SDS011;17064;47.974;13.826;2023-10-19T22:28:23;46.13;;;24.05;;
30249;SDS011;17064;47.974;13.826;2023-10-19T22:33:24;38.80;;;21.23;;
30249;SDS011;17064;47.974;13.826;2023-10-19T22:38:24;45.92;;;25.00;;
30249;SDS011;17064;47.974;13.826;2023-10-19T22:43:25;43.97;;;22.48;;
30249;SDS011;17064;47.974;13.826;2023-10-19T22:48:26;46.00;;;24.58;;
30249;SDS011;17064;47.974;13.826;2023-10-19T22:53:26;52.50;;;25.05;;
30249;SDS011;17064;47.974;13.826;2023-10-19T22:58:27;51.72;;;25.55;;
30249;SDS011;17064;47.974;13.826;2023-10-19T23:03:28;49.08;;;25.83;;
30249;SDS011;17064;47.974;13.826;2023-10-19T23:08:29;49.47;;;26.10;;
30249;SDS011;17064;47.974;13.826;2023-10-19T23:13:31;51.78;;;25.85;;
30249;SDS011;17064;47.974;13.826;2023-10-19T23:18:34;45.55;;;25.58;;
30249;SDS011;17064;47.974;13.826;2023-10-19T23:23:37;48.45;;;24.65;;
30249;SDS011;17064;47.974;13.826;2023-10-19T23:28:39;61.20;;;32.03;;
30249;SDS011;17064;47.974;13.826;2023-10-19T23:33:42;57.17;;;29.33;;
30249;SDS011;17064;47.974;13.826;2023-10-19T23:38:43;61.45;;;28.88;;
30249;SDS011;17064;47.974;13.826;2023-10-19T23:43:44;56.60;;;27.23;;
30249;SDS011;17064;47.974;13.826;2023-10-19T23:48:46;50.75;;;27.08;;
30249;SDS011;17064;47.974;13.826;2023-10-19T23:53:47;54.80;;;26.75;;
30249;SDS011;17064;47.974;13.826;2023-10-19T23:58:48;52.60;;;26.33;;
